sensor_id;sensor_type;location;lat;lon;timestamp;P1;durP1;ratioP1;P2;durP2;ratioP2
35699;SDS011;21818;51.078;12.108;2023-09-30T00:00:58;2.58;;;1.23;;
35699;SDS011;21818;51.078;12.108;2023-09-30T00:03:24;4.22;;;1.80;;
35699;SDS011;21818;51.078;12.108;2023-09-30T00:05:50;4.25;;;1.40;;
35699;SDS011;21818;51.078;12.108;2023-09-30T00:08:15;3.25;;;1.42;;
35699;SDS011;21818;51.078;12.108;2023-09-30T00:10:41;3.67;;;1.20;;
35699;SDS011;21818;51.078;12.108;2023-09-30T00:13:07;2.88;;;1.20;;
35699;SDS011;21818;51.078;12.108;2023-09-30T00:15:35;3.90;;;1.83;;
35699;SDS011;21818;51.078;12.108;2023-09-30T00:18:00;4.57;;;1.83;;
35699;SDS011;21818;51.078;12.108;2023-09-30T00:20:27;2.78;;;1.40;;
35699;SDS011;21818;51.078;12.108;2023-09-30T00:22:53;5.90;;;2.38;;
35699;SDS011;21818;51.078;12.108;2023-09-30T00:25:19;2.78;;;1.70;;
35699;SDS011;21818;51.078;12.108;2023-09-30T00:27:45;5.32;;;1.85;;
35699;SDS011;21818;51.078;12.108;2023-09-30T00:30:12;3.70;;;1.70;;
35699;SDS011;21818;51.078;12.108;2023-09-30T00:32:37;2.83;;;1.73;;
35699;SDS011;21818;51.078;12.108;2023-09-30T00:35:04;3.60;;;1.25;;
35699;SDS011;21818;51.078;12.108;2023-09-30T00:37:36;5.20;;;1.90;;
35699;SDS011;21818;51.078;12.108;2023-09-30T00:40:05;4.03;;;1.92;;
35699;SDS011;21818;51.078;12.108;2023-09-30T00:42:31;7.10;;;2.30;;
35699;SDS011;21818;51.078;12.108;2023-09-30T00:44:57;4.43;;;2.50;;
35699;SDS011;21818;51.078;12.108;2023-09-30T00:47:23;3.17;;;2.17;;
35699;SDS011;21818;51.078;12.108;2023-09-30T00:49:49;7.85;;;2.05;;
35699;SDS011;21818;51.078;12.108;2023-09-30T00:52:15;6.88;;;2.42;;
35699;SDS011;21818;51.078;12.108;2023-09-30T00:54:42;8.75;;;2.10;;
35699;SDS011;21818;51.078;12.108;2023-09-30T00:57:09;6.85;;;2.17;;
35699;SDS011;21818;51.078;12.108;2023-09-30T00:59:36;6.95;;;2.03;;
35699;SDS011;21818;51.078;12.108;2023-09-30T01:02:02;4.65;;;1.63;;
35699;SDS011;21818;51.078;12.108;2023-09-30T01:04:30;5.40;;;2.35;;
35699;SDS011;21818;51.078;12.108;2023-09-30T01:06:56;4.88;;;1.55;;
35699;SDS011;21818;51.078;12.108;2023-09-30T01:09:22;5.38;;;1.73;;
35699;SDS011;21818;51.078;12.108;2023-09-30T01:11:48;6.95;;;1.83;;
35699;SDS011;21818;51.078;12.108;2023-09-30T01:14:27;3.88;;;1.77;;
35699;SDS011;21818;51.078;12.108;2023-09-30T01:16:54;5.63;;;1.75;;
35699;SDS011;21818;51.078;12.108;2023-09-30T01:19:20;5.53;;;1.63;;
35699;SDS011;21818;51.078;12.108;2023-09-30T01:21:46;4.18;;;1.50;;
35699;SDS011;21818;51.078;12.108;2023-09-30T01:24:14;7.05;;;2.08;;
35699;SDS011;21818;51.078;12.108;2023-09-30T01:26:40;5.63;;;1.90;;
35699;SDS011;21818;51.078;12.108;2023-09-30T01:29:07;3.20;;;1.45;;
35699;SDS011;21818;51.078;12.108;2023-09-30T01:31:36;8.00;;;1.88;;
35699;SDS011;21818;51.078;12.108;2023-09-30T01:34:03;7.40;;;1.77;;
35699;SDS011;21818;51.078;12.108;2023-09-30T01:36:29;6.57;;;2.47;;
35699;SDS011;21818;51.078;12.108;2023-09-30T01:38:55;8.52;;;2.17;;
35699;SDS011;21818;51.078;12.108;2023-09-30T01:41:20;4.80;;;2.55;;
35699;SDS011;21818;51.078;12.108;2023-09-30T01:43:46;5.60;;;2.13;;
35699;SDS011;21818;51.078;12.108;2023-09-30T01:46:12;7.35;;;2.20;;
35699;SDS011;21818;51.078;12.108;2023-09-30T01:48:37;6.32;;;2.00;;
35699;SDS011;21818;51.078;12.108;2023-09-30T01:51:03;6.50;;;2.28;;
35699;SDS011;21818;51.078;12.108;2023-09-30T01:53:29;6.65;;;2.35;;
35699;SDS011;21818;51.078;12.108;2023-09-30T01:55:54;7.85;;;2.10;;
35699;SDS011;21818;51.078;12.108;2023-09-30T01:58:20;8.60;;;2.70;;
35699;SDS011;21818;51.078;12.108;2023-09-30T02:00:46;6.57;;;1.90;;
35699;SDS011;21818;51.078;12.108;2023-09-30T02:03:11;8.20;;;2.63;;
35699;SDS011;21818;51.078;12.108;2023-09-30T02:05:38;7.85;;;2.15;;
35699;SDS011;21818;51.078;12.108;2023-09-30T02:08:04;8.43;;;2.67;;
35699;SDS011;21818;51.078;12.108;2023-09-30T02:10:31;9.32;;;3.00;;
35699;SDS011;21818;51.078;12.108;2023-09-30T02:12:58;6.90;;;2.42;;
35699;SDS011;21818;51.078;12.108;2023-09-30T02:15:24;5.78;;;2.38;;
35699;SDS011;21818;51.078;12.108;2023-09-30T02:17:50;10.00;;;2.97;;
35699;SDS011;21818;51.078;12.108;2023-09-30T02:20:16;8.70;;;2.70;;
35699;SDS011;21818;51.078;12.108;2023-09-30T02:22:46;6.63;;;2.42;;
35699;SDS011;21818;51.078;12.108;2023-09-30T02:25:14;14.80;;;3.58;;
35699;SDS011;21818;51.078;12.108;2023-09-30T02:27:40;6.47;;;2.25;;
35699;SDS011;21818;51.078;12.108;2023-09-30T02:30:07;7.20;;;2.10;;
35699;SDS011;21818;51.078;12.108;2023-09-30T02:32:37;10.43;;;2.38;;
35699;SDS011;21818;51.078;12.108;2023-09-30T02:35:04;6.68;;;2.05;;
35699;SDS011;21818;51.078;12.108;2023-09-30T02:37:31;4.57;;;2.13;;
35699;SDS011;21818;51.078;12.108;2023-09-30T02:40:00;6.57;;;1.70;;
35699;SDS011;21818;51.078;12.108;2023-09-30T02:42:29;5.90;;;2.42;;
35699;SDS011;21818;51.078;12.108;2023-09-30T02:44:54;11.30;;;2.50;;
35699;SDS011;21818;51.078;12.108;2023-09-30T02:47:20;9.05;;;3.08;;
35699;SDS011;21818;51.078;12.108;2023-09-30T02:49:46;8.82;;;2.10;;
35699;SDS011;21818;51.078;12.108;2023-09-30T02:52:11;9.00;;;2.15;;
35699;SDS011;21818;51.078;12.108;2023-09-30T02:54:37;4.07;;;1.38;;
35699;SDS011;21818;51.078;12.108;2023-09-30T02:57:03;9.90;;;2.20;;
35699;SDS011;21818;51.078;12.108;2023-09-30T02:59:29;5.47;;;2.13;;
35699;SDS011;21818;51.078;12.108;2023-09-30T03:01:54;5.47;;;1.88;;
35699;SDS011;21818;51.078;12.108;2023-09-30T03:04:21;8.77;;;2.45;;
35699;SDS011;21818;51.078;12.108;2023-09-30T03:06:51;5.50;;;2.20;;
35699;SDS011;21818;51.078;12.108;2023-09-30T03:09:16;7.13;;;2.00;;
35699;SDS011;21818;51.078;12.108;2023-09-30T03:11:42;6.47;;;1.98;;
35699;SDS011;21818;51.078;12.108;2023-09-30T03:14:09;10.80;;;2.00;;
35699;SDS011;21818;51.078;12.108;2023-09-30T03:16:36;6.68;;;1.92;;
35699;SDS011;21818;51.078;12.108;2023-09-30T03:19:03;8.85;;;2.20;;
35699;SDS011;21818;51.078;12.108;2023-09-30T03:21:33;5.95;;;1.73;;
35699;SDS011;21818;51.078;12.108;2023-09-30T03:24:02;9.27;;;2.60;;
35699;SDS011;21818;51.078;12.108;2023-09-30T03:26:29;7.13;;;2.13;;
35699;SDS011;21818;51.078;12.108;2023-09-30T03:28:55;8.13;;;2.00;;
35699;SDS011;21818;51.078;12.108;2023-09-30T03:31:21;7.70;;;2.22;;
35699;SDS011;21818;51.078;12.108;2023-09-30T03:33:47;7.03;;;1.95;;
35699;SDS011;21818;51.078;12.108;2023-09-30T03:36:19;7.88;;;1.60;;
35699;SDS011;21818;51.078;12.108;2023-09-30T03:38:45;7.20;;;2.33;;
35699;SDS011;21818;51.078;12.108;2023-09-30T03:41:11;7.75;;;2.08;;
35699;SDS011;21818;51.078;12.108;2023-09-30T03:43:38;8.32;;;2.40;;
35699;SDS011;21818;51.078;12.108;2023-09-30T03:46:06;7.40;;;2.13;;
35699;SDS011;21818;51.078;12.108;2023-09-30T03:48:33;11.68;;;3.22;;
35699;SDS011;21818;51.078;12.108;2023-09-30T03:53:33;7.28;;;2.08;;
35699;SDS011;21818;51.078;12.108;2023-09-30T03:55:59;9.88;;;2.45;;
35699;SDS011;21818;51.078;12.108;2023-09-30T03:58:24;12.05;;;2.70;;
35699;SDS011;21818;51.078;12.108;2023-09-30T04:00:50;7.20;;;2.33;;
35699;SDS011;21818;51.078;12.108;2023-09-30T04:03:16;6.28;;;2.78;;
35699;SDS011;21818;51.078;12.108;2023-09-30T04:05:42;11.38;;;2.63;;
35699;SDS011;21818;51.078;12.108;2023-09-30T04:08:08;11.05;;;2.80;;
35699;SDS011;21818;51.078;12.108;2023-09-30T04:10:33;9.85;;;2.28;;
35699;SDS011;21818;51.078;12.108;2023-09-30T04:12:59;9.90;;;2.38;;
35699;SDS011;21818;51.078;12.108;2023-09-30T04:15:25;8.02;;;1.95;;
35699;SDS011;21818;51.078;12.108;2023-09-30T04:17:50;8.80;;;2.72;;
35699;SDS011;21818;51.078;12.108;2023-09-30T04:20:17;7.57;;;2.80;;
35699;SDS011;21818;51.078;12.108;2023-09-30T04:22:48;9.37;;;2.40;;
35699;SDS011;21818;51.078;12.108;2023-09-30T04:25:14;10.73;;;2.40;;
35699;SDS011;21818;51.078;12.108;2023-09-30T04:27:41;13.35;;;2.08;;
35699;SDS011;21818;51.078;12.108;2023-09-30T04:30:07;7.75;;;2.75;;
35699;SDS011;21818;51.078;12.108;2023-09-30T04:32:36;6.15;;;2.15;;
35699;SDS011;21818;51.078;12.108;2023-09-30T04:35:04;15.02;;;2.67;;
35699;SDS011;21818;51.078;12.108;2023-09-30T04:37:30;9.07;;;2.30;;
35699;SDS011;21818;51.078;12.108;2023-09-30T04:39:55;12.60;;;2.35;;
35699;SDS011;21818;51.078;12.108;2023-09-30T04:42:22;11.02;;;3.40;;
35699;SDS011;21818;51.078;12.108;2023-09-30T04:44:50;9.70;;;1.98;;
35699;SDS011;21818;51.078;12.108;2023-09-30T04:47:16;7.57;;;2.13;;
35699;SDS011;21818;51.078;12.108;2023-09-30T04:49:43;9.65;;;2.15;;
35699;SDS011;21818;51.078;12.108;2023-09-30T04:52:09;8.70;;;2.35;;
35699;SDS011;21818;51.078;12.108;2023-09-30T04:54:35;8.65;;;2.25;;
35699;SDS011;21818;51.078;12.108;2023-09-30T04:57:01;9.63;;;2.25;;
35699;SDS011;21818;51.078;12.108;2023-09-30T04:59:27;7.45;;;2.53;;
35699;SDS011;21818;51.078;12.108;2023-09-30T05:01:54;8.40;;;2.03;;
35699;SDS011;21818;51.078;12.108;2023-09-30T05:04:21;7.80;;;2.47;;
35699;SDS011;21818;51.078;12.108;2023-09-30T05:06:48;8.40;;;2.33;;
35699;SDS011;21818;51.078;12.108;2023-09-30T05:09:14;5.15;;;1.70;;
35699;SDS011;21818;51.078;12.108;2023-09-30T05:11:40;7.43;;;2.10;;
35699;SDS011;21818;51.078;12.108;2023-09-30T05:14:05;11.48;;;2.38;;
35699;SDS011;21818;51.078;12.108;2023-09-30T05:16:31;6.25;;;1.92;;
35699;SDS011;21818;51.078;12.108;2023-09-30T05:18:57;9.90;;;2.45;;
35699;SDS011;21818;51.078;12.108;2023-09-30T05:21:22;6.85;;;2.50;;
35699;SDS011;21818;51.078;12.108;2023-09-30T05:23:48;8.93;;;2.45;;
35699;SDS011;21818;51.078;12.108;2023-09-30T05:26:14;8.00;;;2.25;;
35699;SDS011;21818;51.078;12.108;2023-09-30T05:28:40;8.13;;;2.90;;
35699;SDS011;21818;51.078;12.108;2023-09-30T05:31:06;8.07;;;2.10;;
35699;SDS011;21818;51.078;12.108;2023-09-30T05:33:32;8.57;;;2.50;;
35699;SDS011;21818;51.078;12.108;2023-09-30T05:35:58;9.10;;;2.30;;
35699;SDS011;21818;51.078;12.108;2023-09-30T05:38:24;7.00;;;2.38;;
35699;SDS011;21818;51.078;12.108;2023-09-30T05:40:51;11.18;;;2.17;;
35699;SDS011;21818;51.078;12.108;2023-09-30T05:43:17;6.20;;;1.73;;
35699;SDS011;21818;51.078;12.108;2023-09-30T05:45:42;9.65;;;2.35;;
35699;SDS011;21818;51.078;12.108;2023-09-30T05:48:14;7.00;;;2.35;;
35699;SDS011;21818;51.078;12.108;2023-09-30T05:50:41;9.15;;;2.03;;
35699;SDS011;21818;51.078;12.108;2023-09-30T05:53:07;6.78;;;2.00;;
35699;SDS011;21818;51.078;12.108;2023-09-30T05:55:35;9.02;;;1.83;;
35699;SDS011;21818;51.078;12.108;2023-09-30T05:58:02;8.35;;;2.70;;
35699;SDS011;21818;51.078;12.108;2023-09-30T06:00:28;5.22;;;2.03;;
35699;SDS011;21818;51.078;12.108;2023-09-30T06:02:55;10.43;;;2.78;;
35699;SDS011;21818;51.078;12.108;2023-09-30T06:05:24;9.20;;;2.03;;
35699;SDS011;21818;51.078;12.108;2023-09-30T06:07:55;5.50;;;1.83;;
35699;SDS011;21818;51.078;12.108;2023-09-30T06:10:21;7.28;;;2.00;;
35699;SDS011;21818;51.078;12.108;2023-09-30T06:12:47;7.65;;;2.13;;
35699;SDS011;21818;51.078;12.108;2023-09-30T06:15:19;4.97;;;1.55;;
35699;SDS011;21818;51.078;12.108;2023-09-30T06:17:49;6.05;;;2.30;;
35699;SDS011;21818;51.078;12.108;2023-09-30T06:20:16;9.63;;;2.13;;
35699;SDS011;21818;51.078;12.108;2023-09-30T06:22:47;10.07;;;2.50;;
35699;SDS011;21818;51.078;12.108;2023-09-30T06:25:18;6.82;;;2.10;;
35699;SDS011;21818;51.078;12.108;2023-09-30T06:27:45;9.43;;;2.17;;
35699;SDS011;21818;51.078;12.108;2023-09-30T06:30:12;12.60;;;1.98;;
35699;SDS011;21818;51.078;12.108;2023-09-30T06:32:38;10.00;;;2.35;;
35699;SDS011;21818;51.078;12.108;2023-09-30T06:35:05;8.77;;;2.08;;
35699;SDS011;21818;51.078;12.108;2023-09-30T06:37:34;7.70;;;2.53;;
35699;SDS011;21818;51.078;12.108;2023-09-30T06:40:00;10.50;;;2.90;;
35699;SDS011;21818;51.078;12.108;2023-09-30T06:42:29;5.95;;;1.80;;
35699;SDS011;21818;51.078;12.108;2023-09-30T06:44:54;4.63;;;1.70;;
35699;SDS011;21818;51.078;12.108;2023-09-30T06:47:20;7.65;;;2.40;;
35699;SDS011;21818;51.078;12.108;2023-09-30T06:49:46;10.50;;;2.60;;
35699;SDS011;21818;51.078;12.108;2023-09-30T06:52:12;7.85;;;2.20;;
35699;SDS011;21818;51.078;12.108;2023-09-30T06:54:38;5.50;;;2.13;;
35699;SDS011;21818;51.078;12.108;2023-09-30T06:57:04;4.25;;;1.90;;
35699;SDS011;21818;51.078;12.108;2023-09-30T06:59:29;8.32;;;1.83;;
35699;SDS011;21818;51.078;12.108;2023-09-30T07:01:57;7.18;;;2.55;;
35699;SDS011;21818;51.078;12.108;2023-09-30T07:04:22;8.73;;;2.00;;
35699;SDS011;21818;51.078;12.108;2023-09-30T07:06:48;7.93;;;2.00;;
35699;SDS011;21818;51.078;12.108;2023-09-30T07:09:14;5.38;;;1.67;;
35699;SDS011;21818;51.078;12.108;2023-09-30T07:11:39;5.93;;;1.73;;
35699;SDS011;21818;51.078;12.108;2023-09-30T07:14:05;6.78;;;2.25;;
35699;SDS011;21818;51.078;12.108;2023-09-30T07:16:30;6.65;;;2.35;;
35699;SDS011;21818;51.078;12.108;2023-09-30T07:18:56;7.80;;;2.35;;
35699;SDS011;21818;51.078;12.108;2023-09-30T07:21:22;7.53;;;2.10;;
35699;SDS011;21818;51.078;12.108;2023-09-30T07:23:47;10.45;;;3.47;;
35699;SDS011;21818;51.078;12.108;2023-09-30T07:26:13;12.68;;;3.08;;
35699;SDS011;21818;51.078;12.108;2023-09-30T07:28:39;9.70;;;2.28;;
35699;SDS011;21818;51.078;12.108;2023-09-30T07:31:05;4.00;;;1.70;;
35699;SDS011;21818;51.078;12.108;2023-09-30T07:33:31;6.07;;;2.20;;
35699;SDS011;21818;51.078;12.108;2023-09-30T07:35:57;6.95;;;2.70;;
35699;SDS011;21818;51.078;12.108;2023-09-30T07:38:22;5.93;;;1.77;;
35699;SDS011;21818;51.078;12.108;2023-09-30T07:40:48;5.93;;;1.92;;
35699;SDS011;21818;51.078;12.108;2023-09-30T07:43:14;8.77;;;1.85;;
35699;SDS011;21818;51.078;12.108;2023-09-30T07:45:40;6.97;;;1.77;;
35699;SDS011;21818;51.078;12.108;2023-09-30T07:48:06;9.20;;;1.73;;
35699;SDS011;21818;51.078;12.108;2023-09-30T07:50:34;6.88;;;1.73;;
35699;SDS011;21818;51.078;12.108;2023-09-30T07:53:00;8.18;;;2.25;;
35699;SDS011;21818;51.078;12.108;2023-09-30T07:55:26;7.38;;;1.70;;
35699;SDS011;21818;51.078;12.108;2023-09-30T07:57:51;6.72;;;2.22;;
35699;SDS011;21818;51.078;12.108;2023-09-30T08:00:17;4.05;;;1.50;;
35699;SDS011;21818;51.078;12.108;2023-09-30T08:02:46;5.65;;;1.80;;
35699;SDS011;21818;51.078;12.108;2023-09-30T08:05:11;5.82;;;1.60;;
35699;SDS011;21818;51.078;12.108;2023-09-30T08:07:37;6.90;;;1.77;;
35699;SDS011;21818;51.078;12.108;2023-09-30T08:10:03;7.07;;;2.15;;
35699;SDS011;21818;51.078;12.108;2023-09-30T08:12:30;5.03;;;1.70;;
35699;SDS011;21818;51.078;12.108;2023-09-30T08:14:55;9.98;;;2.60;;
35699;SDS011;21818;51.078;12.108;2023-09-30T08:17:21;9.68;;;1.90;;
35699;SDS011;21818;51.078;12.108;2023-09-30T08:19:46;9.32;;;1.83;;
35699;SDS011;21818;51.078;12.108;2023-09-30T08:22:13;6.75;;;1.90;;
35699;SDS011;21818;51.078;12.108;2023-09-30T08:24:39;4.40;;;1.65;;
35699;SDS011;21818;51.078;12.108;2023-09-30T08:27:04;6.35;;;1.75;;
35699;SDS011;21818;51.078;12.108;2023-09-30T08:29:33;9.70;;;2.00;;
35699;SDS011;21818;51.078;12.108;2023-09-30T08:32:01;6.03;;;1.88;;
35699;SDS011;21818;51.078;12.108;2023-09-30T08:34:27;7.40;;;1.98;;
35699;SDS011;21818;51.078;12.108;2023-09-30T08:36:53;7.35;;;1.88;;
35699;SDS011;21818;51.078;12.108;2023-09-30T08:39:19;12.23;;;2.20;;
35699;SDS011;21818;51.078;12.108;2023-09-30T08:41:45;7.82;;;1.58;;
35699;SDS011;21818;51.078;12.108;2023-09-30T08:44:11;6.00;;;1.80;;
35699;SDS011;21818;51.078;12.108;2023-09-30T08:46:37;8.95;;;1.67;;
35699;SDS011;21818;51.078;12.108;2023-09-30T08:49:05;4.95;;;1.67;;
35699;SDS011;21818;51.078;12.108;2023-09-30T08:51:32;4.15;;;1.45;;
35699;SDS011;21818;51.078;12.108;2023-09-30T08:54:00;8.07;;;2.03;;
35699;SDS011;21818;51.078;12.108;2023-09-30T08:56:29;6.70;;;1.80;;
35699;SDS011;21818;51.078;12.108;2023-09-30T08:58:58;6.38;;;2.15;;
35699;SDS011;21818;51.078;12.108;2023-09-30T09:01:25;6.07;;;1.98;;
35699;SDS011;21818;51.078;12.108;2023-09-30T09:03:52;7.18;;;2.03;;
35699;SDS011;21818;51.078;12.108;2023-09-30T09:06:19;7.53;;;2.05;;
35699;SDS011;21818;51.078;12.108;2023-09-30T09:08:48;5.25;;;2.05;;
35699;SDS011;21818;51.078;12.108;2023-09-30T09:11:14;5.28;;;1.92;;
35699;SDS011;21818;51.078;12.108;2023-09-30T09:13:46;8.48;;;2.03;;
35699;SDS011;21818;51.078;12.108;2023-09-30T09:16:20;3.50;;;1.63;;
35699;SDS011;21818;51.078;12.108;2023-09-30T09:18:46;9.07;;;1.90;;
35699;SDS011;21818;51.078;12.108;2023-09-30T09:21:16;8.90;;;1.95;;
35699;SDS011;21818;51.078;12.108;2023-09-30T09:23:43;6.60;;;1.73;;
35699;SDS011;21818;51.078;12.108;2023-09-30T09:26:33;9.10;;;2.45;;
35699;SDS011;21818;51.078;12.108;2023-09-30T09:29:00;6.28;;;1.90;;
35699;SDS011;21818;51.078;12.108;2023-09-30T09:31:29;8.75;;;1.83;;
35699;SDS011;21818;51.078;12.108;2023-09-30T09:33:55;7.20;;;1.60;;
35699;SDS011;21818;51.078;12.108;2023-09-30T09:36:23;5.95;;;1.58;;
35699;SDS011;21818;51.078;12.108;2023-09-30T09:39:07;8.07;;;2.33;;
35699;SDS011;21818;51.078;12.108;2023-09-30T09:41:34;5.95;;;1.63;;
35699;SDS011;21818;51.078;12.108;2023-09-30T09:44:21;5.20;;;2.20;;
35699;SDS011;21818;51.078;12.108;2023-09-30T09:46:47;5.07;;;2.13;;
35699;SDS011;21818;51.078;12.108;2023-09-30T09:49:15;7.85;;;1.75;;
35699;SDS011;21818;51.078;12.108;2023-09-30T09:51:43;7.47;;;1.60;;
35699;SDS011;21818;51.078;12.108;2023-09-30T09:54:13;9.23;;;2.15;;
35699;SDS011;21818;51.078;12.108;2023-09-30T09:56:41;9.20;;;2.38;;
35699;SDS011;21818;51.078;12.108;2023-09-30T09:59:13;5.53;;;1.70;;
35699;SDS011;21818;51.078;12.108;2023-09-30T10:01:40;12.75;;;2.17;;
35699;SDS011;21818;51.078;12.108;2023-09-30T10:04:06;6.88;;;1.90;;
35699;SDS011;21818;51.078;12.108;2023-09-30T10:06:33;4.40;;;1.27;;
35699;SDS011;21818;51.078;12.108;2023-09-30T10:09:07;6.03;;;1.60;;
35699;SDS011;21818;51.078;12.108;2023-09-30T10:14:01;4.53;;;1.38;;
35699;SDS011;21818;51.078;12.108;2023-09-30T10:16:49;7.43;;;1.80;;
35699;SDS011;21818;51.078;12.108;2023-09-30T10:19:16;7.05;;;1.65;;
35699;SDS011;21818;51.078;12.108;2023-09-30T10:24:41;8.30;;;1.83;;
35699;SDS011;21818;51.078;12.108;2023-09-30T10:32:14;6.13;;;1.88;;
35699;SDS011;21818;51.078;12.108;2023-09-30T10:34:47;5.50;;;1.70;;
35699;SDS011;21818;51.078;12.108;2023-09-30T10:37:20;6.03;;;1.75;;
35699;SDS011;21818;51.078;12.108;2023-09-30T10:39:57;8.30;;;1.85;;
35699;SDS011;21818;51.078;12.108;2023-09-30T10:50:59;6.40;;;1.85;;
35699;SDS011;21818;51.078;12.108;2023-09-30T10:56:16;7.45;;;1.88;;
35699;SDS011;21818;51.078;12.108;2023-09-30T10:58:44;9.20;;;1.77;;
35699;SDS011;21818;51.078;12.108;2023-09-30T11:01:22;9.07;;;1.60;;
35699;SDS011;21818;51.078;12.108;2023-09-30T11:03:49;6.63;;;1.85;;
35699;SDS011;21818;51.078;12.108;2023-09-30T11:06:20;8.23;;;1.60;;
35699;SDS011;21818;51.078;12.108;2023-09-30T11:08:53;3.85;;;1.35;;
35699;SDS011;21818;51.078;12.108;2023-09-30T11:11:31;8.85;;;1.98;;
35699;SDS011;21818;51.078;12.108;2023-09-30T11:14:23;9.63;;;1.95;;
35699;SDS011;21818;51.078;12.108;2023-09-30T11:16:51;5.88;;;1.55;;
35699;SDS011;21818;51.078;12.108;2023-09-30T11:19:18;6.43;;;1.42;;
35699;SDS011;21818;51.078;12.108;2023-09-30T11:21:46;7.45;;;1.80;;
35699;SDS011;21818;51.078;12.108;2023-09-30T11:24:23;6.65;;;1.42;;
35699;SDS011;21818;51.078;12.108;2023-09-30T11:26:53;5.47;;;1.17;;
35699;SDS011;21818;51.078;12.108;2023-09-30T11:29:20;4.13;;;1.38;;
35699;SDS011;21818;51.078;12.108;2023-09-30T11:31:47;6.07;;;1.65;;
35699;SDS011;21818;51.078;12.108;2023-09-30T11:34:15;4.32;;;1.30;;
35699;SDS011;21818;51.078;12.108;2023-09-30T11:36:47;3.45;;;1.42;;
35699;SDS011;21818;51.078;12.108;2023-09-30T11:39:24;6.45;;;1.58;;
35699;SDS011;21818;51.078;12.108;2023-09-30T11:41:50;6.55;;;1.35;;
35699;SDS011;21818;51.078;12.108;2023-09-30T11:44:17;4.85;;;1.30;;
35699;SDS011;21818;51.078;12.108;2023-09-30T11:47:00;4.50;;;1.20;;
35699;SDS011;21818;51.078;12.108;2023-09-30T11:49:30;6.60;;;1.80;;
35699;SDS011;21818;51.078;12.108;2023-09-30T11:51:58;7.43;;;1.77;;
35699;SDS011;21818;51.078;12.108;2023-09-30T11:57:21;5.30;;;1.90;;
35699;SDS011;21818;51.078;12.108;2023-09-30T11:59:47;3.78;;;1.23;;
35699;SDS011;21818;51.078;12.108;2023-09-30T12:02:13;6.85;;;1.63;;
35699;SDS011;21818;51.078;12.108;2023-09-30T12:04:40;5.53;;;1.35;;
35699;SDS011;21818;51.078;12.108;2023-09-30T12:07:09;6.05;;;1.35;;
35699;SDS011;21818;51.078;12.108;2023-09-30T12:09:35;5.07;;;1.70;;
35699;SDS011;21818;51.078;12.108;2023-09-30T12:12:05;6.20;;;1.58;;
35699;SDS011;21818;51.078;12.108;2023-09-30T12:14:34;6.13;;;1.75;;
35699;SDS011;21818;51.078;12.108;2023-09-30T12:16:59;5.22;;;1.27;;
35699;SDS011;21818;51.078;12.108;2023-09-30T12:19:25;6.60;;;1.40;;
35699;SDS011;21818;51.078;12.108;2023-09-30T12:21:51;9.40;;;1.73;;
35699;SDS011;21818;51.078;12.108;2023-09-30T12:24:17;4.63;;;1.33;;
35699;SDS011;21818;51.078;12.108;2023-09-30T12:26:47;4.13;;;1.33;;
35699;SDS011;21818;51.078;12.108;2023-09-30T12:29:16;4.07;;;1.30;;
35699;SDS011;21818;51.078;12.108;2023-09-30T12:31:46;7.22;;;1.70;;
35699;SDS011;21818;51.078;12.108;2023-09-30T12:34:13;7.35;;;1.60;;
35699;SDS011;21818;51.078;12.108;2023-09-30T12:36:39;5.25;;;1.50;;
35699;SDS011;21818;51.078;12.108;2023-09-30T12:39:05;5.03;;;1.48;;
35699;SDS011;21818;51.078;12.108;2023-09-30T12:41:36;6.47;;;1.70;;
35699;SDS011;21818;51.078;12.108;2023-09-30T12:44:02;8.75;;;2.33;;
35699;SDS011;21818;51.078;12.108;2023-09-30T12:46:27;5.72;;;2.22;;
35699;SDS011;21818;51.078;12.108;2023-09-30T12:48:53;3.33;;;1.00;;
35699;SDS011;21818;51.078;12.108;2023-09-30T12:51:20;9.20;;;1.70;;
35699;SDS011;21818;51.078;12.108;2023-09-30T12:53:45;3.58;;;1.13;;
35699;SDS011;21818;51.078;12.108;2023-09-30T12:56:11;4.88;;;1.77;;
35699;SDS011;21818;51.078;12.108;2023-09-30T12:58:36;4.25;;;1.45;;
35699;SDS011;21818;51.078;12.108;2023-09-30T13:01:03;4.05;;;1.42;;
35699;SDS011;21818;51.078;12.108;2023-09-30T13:03:31;2.72;;;0.90;;
35699;SDS011;21818;51.078;12.108;2023-09-30T13:05:57;7.38;;;1.33;;
35699;SDS011;21818;51.078;12.108;2023-09-30T13:08:23;6.20;;;1.38;;
35699;SDS011;21818;51.078;12.108;2023-09-30T13:10:48;3.20;;;0.95;;
35699;SDS011;21818;51.078;12.108;2023-09-30T13:13:15;3.75;;;1.27;;
35699;SDS011;21818;51.078;12.108;2023-09-30T13:15:41;6.20;;;1.33;;
35699;SDS011;21818;51.078;12.108;2023-09-30T13:18:07;5.25;;;1.42;;
35699;SDS011;21818;51.078;12.108;2023-09-30T13:20:33;5.13;;;1.40;;
35699;SDS011;21818;51.078;12.108;2023-09-30T13:22:58;5.60;;;1.45;;
35699;SDS011;21818;51.078;12.108;2023-09-30T13:25:24;5.60;;;1.63;;
35699;SDS011;21818;51.078;12.108;2023-09-30T13:27:51;5.30;;;1.52;;
35699;SDS011;21818;51.078;12.108;2023-09-30T13:30:17;4.72;;;1.65;;
35699;SDS011;21818;51.078;12.108;2023-09-30T13:32:42;4.60;;;1.13;;
35699;SDS011;21818;51.078;12.108;2023-09-30T13:35:09;4.78;;;1.30;;
35699;SDS011;21818;51.078;12.108;2023-09-30T13:37:35;4.32;;;1.30;;
35699;SDS011;21818;51.078;12.108;2023-09-30T13:40:02;3.67;;;0.95;;
35699;SDS011;21818;51.078;12.108;2023-09-30T13:42:29;3.42;;;1.00;;
35699;SDS011;21818;51.078;12.108;2023-09-30T13:44:55;2.72;;;1.02;;
35699;SDS011;21818;51.078;12.108;2023-09-30T13:47:25;3.78;;;1.05;;
35699;SDS011;21818;51.078;12.108;2023-09-30T13:49:51;4.25;;;1.38;;
35699;SDS011;21818;51.078;12.108;2023-09-30T13:52:17;3.75;;;1.20;;
35699;SDS011;21818;51.078;12.108;2023-09-30T13:54:42;5.03;;;1.23;;
35699;SDS011;21818;51.078;12.108;2023-09-30T13:57:08;2.47;;;1.40;;
35699;SDS011;21818;51.078;12.108;2023-09-30T13:59:34;3.20;;;1.27;;
35699;SDS011;21818;51.078;12.108;2023-09-30T14:02:01;3.33;;;1.02;;
35699;SDS011;21818;51.078;12.108;2023-09-30T14:04:30;4.35;;;1.17;;
35699;SDS011;21818;51.078;12.108;2023-09-30T14:07:00;4.10;;;1.17;;
35699;SDS011;21818;51.078;12.108;2023-09-30T14:09:27;2.33;;;0.95;;
35699;SDS011;21818;51.078;12.108;2023-09-30T14:11:53;3.47;;;1.13;;
35699;SDS011;21818;51.078;12.108;2023-09-30T14:14:19;4.75;;;1.30;;
35699;SDS011;21818;51.078;12.108;2023-09-30T14:16:44;3.67;;;1.02;;
35699;SDS011;21818;51.078;12.108;2023-09-30T14:19:10;3.40;;;0.95;;
35699;SDS011;21818;51.078;12.108;2023-09-30T14:21:35;4.60;;;1.25;;
35699;SDS011;21818;51.078;12.108;2023-09-30T14:24:01;4.93;;;1.40;;
35699;SDS011;21818;51.078;12.108;2023-09-30T14:26:27;3.03;;;1.25;;
35699;SDS011;21818;51.078;12.108;2023-09-30T14:28:53;2.97;;;1.02;;
35699;SDS011;21818;51.078;12.108;2023-09-30T14:31:19;4.00;;;1.00;;
35699;SDS011;21818;51.078;12.108;2023-09-30T14:33:45;2.97;;;1.30;;
35699;SDS011;21818;51.078;12.108;2023-09-30T14:36:11;3.78;;;1.20;;
35699;SDS011;21818;51.078;12.108;2023-09-30T14:38:37;3.63;;;1.08;;
35699;SDS011;21818;51.078;12.108;2023-09-30T14:41:06;3.25;;;1.05;;
35699;SDS011;21818;51.078;12.108;2023-09-30T14:46:02;4.25;;;1.25;;
35699;SDS011;21818;51.078;12.108;2023-09-30T14:48:28;3.50;;;1.20;;
35699;SDS011;21818;51.078;12.108;2023-09-30T14:50:54;2.90;;;1.38;;
35699;SDS011;21818;51.078;12.108;2023-09-30T14:53:21;3.25;;;0.95;;
35699;SDS011;21818;51.078;12.108;2023-09-30T14:55:47;3.17;;;1.05;;
35699;SDS011;21818;51.078;12.108;2023-09-30T14:58:13;5.40;;;1.27;;
35699;SDS011;21818;51.078;12.108;2023-09-30T15:00:39;3.58;;;0.95;;
35699;SDS011;21818;51.078;12.108;2023-09-30T15:03:05;6.93;;;1.48;;